createdAt,value
2019-05-06T00:00:26.534Z,13.60
2019-05-06T00:02:55.970Z,11.35
2019-05-06T00:05:26.202Z,8.70
2019-05-06T00:07:55.558Z,13.00
2019-05-06T00:10:34.122Z,15.95
2019-05-06T00:13:04.960Z,12.73
2019-05-06T00:15:34.638Z,11.93
2019-05-06T00:18:05.261Z,14.83
2019-05-06T00:20:35.147Z,14.78
2019-05-06T00:23:06.358Z,12.13
2019-05-06T00:25:37.553Z,10.35
2019-05-06T00:28:24.527Z,12.95
2019-05-06T00:31:15.929Z,10.80
2019-05-06T00:33:44.384Z,10.72
2019-05-06T00:36:14.148Z,14.73
2019-05-06T00:38:45.386Z,13.60
2019-05-06T00:41:25.501Z,11.12
2019-05-06T00:43:54.846Z,18.48
2019-05-06T00:46:24.387Z,11.50
2019-05-06T00:48:54.836Z,12.05
2019-05-06T00:51:24.508Z,16.62
2019-05-06T00:53:58.657Z,19.17
2019-05-06T00:56:27.926Z,9.88
2019-05-06T00:58:57.453Z,11.50
2019-05-06T01:01:29.643Z,11.50
2019-05-06T01:03:57.702Z,13.90
2019-05-06T01:06:27.293Z,10.05
2019-05-06T01:08:56.574Z,15.50
2019-05-06T01:11:26.101Z,13.95
2019-05-06T01:13:59.722Z,11.57
2019-05-06T01:16:28.993Z,11.12
2019-05-06T01:18:58.506Z,11.10
2019-05-06T01:21:27.773Z,11.28
2019-05-06T01:23:57.055Z,16.60
2019-05-06T01:26:26.321Z,12.78
2019-05-06T01:28:55.600Z,13.10
2019-05-06T01:31:39.527Z,11.15
2019-05-06T01:33:56.017Z,10.53
2019-05-06T01:36:25.669Z,12.03
2019-05-06T01:38:56.573Z,13.78
2019-05-06T01:41:45.049Z,14.85
2019-05-06T01:44:14.329Z,14.78
2019-05-06T01:46:44.747Z,10.13
2019-05-06T01:49:14.288Z,15.55
2019-05-06T01:51:43.866Z,12.15
2019-05-06T01:54:14.206Z,14.13
2019-05-06T01:56:44.499Z,15.10
2019-05-06T01:59:14.949Z,10.82
2019-05-06T02:01:57.361Z,11.12
2019-05-06T02:04:15.268Z,14.23
2019-05-06T02:06:44.545Z,12.98
2019-05-06T02:09:15.550Z,16.20
2019-05-06T02:11:47.888Z,10.25
2019-05-06T02:14:16.430Z,12.55
2019-05-06T02:16:46.021Z,14.47
2019-05-06T02:19:15.625Z,14.18
2019-05-06T02:21:46.877Z,12.35
2019-05-06T02:24:35.768Z,11.63
2019-05-06T02:27:05.817Z,15.90
2019-05-06T02:29:48.660Z,12.60
2019-05-06T02:32:31.623Z,16.42
2019-05-06T02:35:05.236Z,14.00
2019-05-06T02:37:39.205Z,12.50
2019-05-06T02:40:24.814Z,14.18
2019-05-06T02:42:54.534Z,15.35
2019-05-06T02:45:24.226Z,13.95
2019-05-06T02:47:58.098Z,14.98
2019-05-06T02:50:47.245Z,15.65
2019-05-06T02:53:18.166Z,19.35
2019-05-06T02:55:47.448Z,18.15
2019-05-06T02:58:16.718Z,15.10
2019-05-06T03:00:46.947Z,20.20
2019-05-06T03:03:17.185Z,19.05
2019-05-06T03:05:46.474Z,13.78
2019-05-06T03:08:15.744Z,17.82
2019-05-06T03:10:45.007Z,14.50
2019-05-06T03:13:14.554Z,20.62
2019-05-06T03:15:44.403Z,16.40
2019-05-06T03:18:15.107Z,13.32
2019-05-06T03:20:53.153Z,19.82
2019-05-06T03:23:23.644Z,16.77
2019-05-06T03:25:53.608Z,17.05
2019-05-06T03:28:24.002Z,16.50
2019-05-06T03:30:56.723Z,13.62
2019-05-06T03:33:47.485Z,19.82
2019-05-06T03:36:07.165Z,17.32
2019-05-06T03:38:26.964Z,16.85
2019-05-06T03:40:56.230Z,14.95
2019-05-06T03:43:25.515Z,17.02
2019-05-06T03:46:04.304Z,19.30
2019-05-06T03:48:43.927Z,23.38
2019-05-06T03:51:13.521Z,19.17
2019-05-06T03:53:43.990Z,16.62
2019-05-06T03:56:18.844Z,17.92
2019-05-06T03:58:45.028Z,19.60
2019-05-06T04:01:16.524Z,20.30
2019-05-06T04:03:52.265Z,24.00
2019-05-06T04:06:18.329Z,17.52
2019-05-06T04:08:49.243Z,17.80
2019-05-06T04:11:18.522Z,20.97
2019-05-06T04:13:49.245Z,19.77
2019-05-06T04:16:23.418Z,19.82
2019-05-06T04:18:54.610Z,25.43
2019-05-06T04:21:43.604Z,19.48
2019-05-06T04:24:15.113Z,19.35
2019-05-06T04:26:46.720Z,20.32
2019-05-06T04:29:16.190Z,29.92
2019-05-06T04:31:45.964Z,23.90
2019-05-06T04:34:19.452Z,21.68
2019-05-06T04:36:46.630Z,20.40
2019-05-06T04:39:15.960Z,23.10
2019-05-06T04:41:45.477Z,23.45
2019-05-06T04:44:14.822Z,20.52
2019-05-06T04:46:44.576Z,20.80
2019-05-06T04:49:15.028Z,22.20
2019-05-06T04:51:45.645Z,21.52
2019-05-06T04:54:15.002Z,29.15
2019-05-06T04:56:44.443Z,23.70
2019-05-06T04:59:14.134Z,29.02
2019-05-06T05:01:45.481Z,31.68
2019-05-06T05:04:28.518Z,26.23
2019-05-06T05:06:46.412Z,30.05
2019-05-06T05:09:17.456Z,26.62
2019-05-06T05:11:49.066Z,30.92
2019-05-06T05:14:25.364Z,32.58
2019-05-06T05:16:58.525Z,25.57
2019-05-06T05:19:29.445Z,24.15
2019-05-06T05:22:07.256Z,26.85
2019-05-06T05:24:37.309Z,22.85
2019-05-06T05:27:07.552Z,24.10
2019-05-06T05:29:36.897Z,23.92
2019-05-06T05:32:07.469Z,31.60
2019-05-06T05:34:40.409Z,20.88
2019-05-06T05:37:07.793Z,30.25
2019-05-06T05:39:37.081Z,20.27
2019-05-06T05:42:07.989Z,26.97
2019-05-06T05:44:43.126Z,20.92
2019-05-06T05:47:12.666Z,24.32
2019-05-06T05:49:59.021Z,23.95
2019-05-06T05:52:28.292Z,24.23
2019-05-06T05:54:57.817Z,20.00
2019-05-06T05:57:27.343Z,26.37
2019-05-06T06:00:09.034Z,20.60
2019-05-06T06:02:38.308Z,27.60
2019-05-06T06:05:08.214Z,24.40
2019-05-06T06:07:37.729Z,21.15
2019-05-06T06:10:13.271Z,24.07
2019-05-06T06:12:43.110Z,26.68
2019-05-06T06:15:22.314Z,24.25
2019-05-06T06:17:53.177Z,20.05
2019-05-06T06:20:42.293Z,19.60
2019-05-06T06:23:13.529Z,16.65
2019-05-06T06:25:43.452Z,18.07
2019-05-06T06:28:12.726Z,25.27
2019-05-06T06:31:02.977Z,21.27
2019-05-06T06:33:33.505Z,22.62
2019-05-06T06:36:22.930Z,20.48
2019-05-06T06:38:56.006Z,18.52
2019-05-06T06:41:25.361Z,24.60
2019-05-06T06:43:56.513Z,29.50
2019-05-06T06:46:26.131Z,18.37
2019-05-06T06:48:55.413Z,29.02
2019-05-06T06:51:25.236Z,25.30
2019-05-06T06:53:54.841Z,25.27
2019-05-06T06:56:32.964Z,24.30
2019-05-06T06:59:04.345Z,24.52
2019-05-06T07:01:35.345Z,18.10
2019-05-06T07:04:10.414Z,20.97
2019-05-06T07:06:42.385Z,19.57
2019-05-06T07:09:12.571Z,7.55
2019-05-06T07:11:42.868Z,20.05
2019-05-06T07:14:13.716Z,19.67
2019-05-06T07:16:43.233Z,21.73
2019-05-06T07:19:14.521Z,19.70
2019-05-06T07:21:48.897Z,21.60
2019-05-06T07:24:18.180Z,22.15
2019-05-06T07:26:49.109Z,18.67
2019-05-06T07:29:23.339Z,19.35
2019-05-06T07:31:49.378Z,24.87
2019-05-06T07:34:18.981Z,21.30
2019-05-06T07:36:48.593Z,21.42
2019-05-06T07:39:17.876Z,18.67
2019-05-06T07:41:55.005Z,21.23
2019-05-06T07:44:25.934Z,21.05
2019-05-06T07:46:59.622Z,22.98
2019-05-06T07:49:29.300Z,18.50
2019-05-06T07:51:58.840Z,17.70
2019-05-06T07:54:28.446Z,22.48
2019-05-06T07:56:57.740Z,21.15
2019-05-06T07:59:27.349Z,17.87
2019-05-06T08:01:56.967Z,20.05
2019-05-06T08:04:26.245Z,24.10
2019-05-06T08:06:55.529Z,22.07
2019-05-06T08:09:24.883Z,15.38
2019-05-06T08:11:54.466Z,17.02
2019-05-06T08:14:25.453Z,19.55
2019-05-06T08:16:56.393Z,23.98
2019-05-06T08:19:25.749Z,19.17
2019-05-06T08:21:56.695Z,17.23
2019-05-06T08:24:25.981Z,18.12
2019-05-06T08:26:55.253Z,14.67
2019-05-06T08:29:24.593Z,19.23
2019-05-06T08:31:54.103Z,31.70
2019-05-06T08:34:23.393Z,20.02
2019-05-06T08:37:06.665Z,17.97
2019-05-06T08:39:35.958Z,17.30
2019-05-06T08:42:05.404Z,22.50
2019-05-06T08:44:34.668Z,19.27
2019-05-06T08:47:03.945Z,18.60
2019-05-06T08:49:34.872Z,18.75
2019-05-06T08:52:05.862Z,17.05
2019-05-06T08:54:39.746Z,21.17
2019-05-06T08:57:09.030Z,26.85
2019-05-06T08:59:38.322Z,20.15
2019-05-06T09:02:08.478Z,16.80
2019-05-06T09:04:38.058Z,17.80
2019-05-06T09:07:07.658Z,17.67
2019-05-06T09:09:36.950Z,19.37
2019-05-06T09:12:06.289Z,18.90
2019-05-06T09:14:35.870Z,22.10
2019-05-06T09:17:06.105Z,20.10
2019-05-06T09:19:35.394Z,15.20
2019-05-06T09:22:04.740Z,16.23
2019-05-06T09:24:34.025Z,20.70
2019-05-06T09:27:04.946Z,15.37
2019-05-06T09:29:42.943Z,19.50
2019-05-06T09:32:14.190Z,12.77
2019-05-06T09:34:45.134Z,17.53
2019-05-06T09:37:15.484Z,12.57
2019-05-06T09:39:46.118Z,13.20
2019-05-06T09:42:16.201Z,12.20
2019-05-06T09:44:50.296Z,13.97
2019-05-06T09:47:33.033Z,10.60
2019-05-06T09:50:02.903Z,13.80
2019-05-06T09:52:33.287Z,11.93
2019-05-06T09:55:04.826Z,15.30
2019-05-06T09:57:35.811Z,14.77
2019-05-06T10:00:06.880Z,17.03
2019-05-06T10:02:37.892Z,12.50
2019-05-06T10:05:07.149Z,8.57
2019-05-06T10:07:36.777Z,13.03
2019-05-06T10:10:06.697Z,11.07
2019-05-06T10:12:36.052Z,9.03
2019-05-06T10:15:06.195Z,9.50
2019-05-06T10:17:36.146Z,12.80
2019-05-06T10:20:06.366Z,10.00
2019-05-06T10:22:36.621Z,10.53
2019-05-06T10:25:06.474Z,10.83
2019-05-06T10:27:37.226Z,12.33
2019-05-06T10:30:12.375Z,13.73
2019-05-06T10:32:45.670Z,11.70
2019-05-06T10:35:15.594Z,15.73
2019-05-06T10:38:02.825Z,16.00
2019-05-06T10:40:34.568Z,17.00
2019-05-06T10:43:06.929Z,15.27
2019-05-06T10:45:36.208Z,16.23
2019-05-06T10:48:05.552Z,13.33
2019-05-06T10:50:36.638Z,12.83
2019-05-06T10:53:07.798Z,14.50
2019-05-06T10:55:38.709Z,11.47
2019-05-06T10:58:07.990Z,29.47
2019-05-06T11:00:37.330Z,14.33
2019-05-06T11:03:14.956Z,15.53
2019-05-06T11:05:44.746Z,12.27
2019-05-06T11:08:14.295Z,11.10
2019-05-06T11:10:45.286Z,16.30
2019-05-06T11:13:15.351Z,11.73
2019-05-06T11:15:44.893Z,15.30
2019-05-06T11:18:14.447Z,16.80
2019-05-06T11:20:44.239Z,14.20
2019-05-06T11:23:14.212Z,13.63
2019-05-06T11:25:43.942Z,15.00
2019-05-06T11:28:34.901Z,12.07
2019-05-06T11:31:22.821Z,15.87
2019-05-06T11:33:55.953Z,21.50
2019-05-06T11:36:27.147Z,17.70
2019-05-06T11:38:56.754Z,15.03
2019-05-06T11:41:26.030Z,14.27
2019-05-06T11:43:55.565Z,20.50
2019-05-06T11:46:24.841Z,21.27
2019-05-06T11:48:54.289Z,25.33
2019-05-06T11:51:25.205Z,20.33
2019-05-06T11:53:54.485Z,16.87
2019-05-06T11:56:23.757Z,16.23
2019-05-06T11:58:54.953Z,20.47
2019-05-06T12:01:29.032Z,17.87
2019-05-06T12:03:58.477Z,19.97
2019-05-06T12:06:27.759Z,18.60
2019-05-06T12:08:57.041Z,20.43
2019-05-06T12:11:26.551Z,17.90
2019-05-06T12:13:55.830Z,22.43
2019-05-06T12:16:26.050Z,20.70
2019-05-06T12:18:55.799Z,18.87
2019-05-06T12:21:25.318Z,18.93
2019-05-06T12:23:54.767Z,17.70
2019-05-06T12:26:24.051Z,19.00
2019-05-06T12:28:53.466Z,17.93
2019-05-06T12:31:24.049Z,21.43
2019-05-06T12:33:53.598Z,17.90
2019-05-06T12:36:23.448Z,21.63
2019-05-06T12:39:16.308Z,23.80
2019-05-06T12:41:48.425Z,17.90
2019-05-06T12:44:17.715Z,15.43
2019-05-06T12:47:04.822Z,16.73
2019-05-06T12:49:34.108Z,13.53
2019-05-06T12:52:03.422Z,11.07
2019-05-06T12:54:33.652Z,17.83
2019-05-06T12:57:03.538Z,13.07
2019-05-06T12:59:33.919Z,11.60
2019-05-06T13:02:03.199Z,13.17
2019-05-06T13:04:49.738Z,12.70
2019-05-06T13:07:03.956Z,16.50
2019-05-06T13:09:33.373Z,12.40
2019-05-06T13:12:03.699Z,12.57
2019-05-06T13:14:37.053Z,9.47
2019-05-06T13:17:07.812Z,10.10
2019-05-06T13:19:37.085Z,12.47
2019-05-06T13:22:07.528Z,63.43
2019-05-06T13:24:37.423Z,55.63
2019-05-06T13:27:09.735Z,20.23
2019-05-06T13:29:39.306Z,9.90
2019-05-06T13:32:12.791Z,12.13
2019-05-06T13:34:44.278Z,10.33
2019-05-06T13:37:14.086Z,11.70
2019-05-06T13:39:44.211Z,14.87
2019-05-06T13:42:16.310Z,11.50
2019-05-06T13:44:49.610Z,11.93
2019-05-06T13:47:43.177Z,12.10
2019-05-06T13:50:16.260Z,9.30
2019-05-06T13:53:06.549Z,10.70
2019-05-06T13:55:22.062Z,14.57
2019-05-06T13:57:53.703Z,13.50
2019-05-06T14:00:24.653Z,15.13
2019-05-06T14:02:58.819Z,15.70
2019-05-06T14:05:33.077Z,12.57
2019-05-06T14:08:09.147Z,11.07
2019-05-06T14:10:43.551Z,12.63
2019-05-06T14:13:14.836Z,11.03
2019-05-06T14:15:52.653Z,12.57
2019-05-06T14:18:24.850Z,9.27
2019-05-06T14:20:56.944Z,12.40
2019-05-06T14:23:34.272Z,11.00
2019-05-06T14:26:17.193Z,13.93
2019-05-06T14:28:56.786Z,12.73
2019-05-06T14:31:32.526Z,14.20
2019-05-06T14:34:05.033Z,14.13
2019-05-06T14:36:40.079Z,10.60
2019-05-06T14:39:14.579Z,14.60
2019-05-06T14:41:55.595Z,16.40
2019-05-06T14:44:26.084Z,15.47
2019-05-06T14:47:00.313Z,16.77
2019-05-06T14:49:35.689Z,11.93
2019-05-06T14:52:08.116Z,11.80
2019-05-06T14:54:52.964Z,12.20
2019-05-06T14:57:23.041Z,14.57
2019-05-06T14:59:56.124Z,18.30
2019-05-06T15:02:27.452Z,15.20
2019-05-06T15:05:02.972Z,12.13
2019-05-06T15:07:33.117Z,12.83
2019-05-06T15:10:19.279Z,15.03
2019-05-06T15:12:38.710Z,15.73
2019-05-06T15:15:12.223Z,18.83
2019-05-06T15:17:45.325Z,18.40
2019-05-06T15:20:17.274Z,15.20
2019-05-06T15:22:53.275Z,11.53
2019-05-06T15:25:23.860Z,12.70
2019-05-06T15:28:02.380Z,12.30
2019-05-06T15:30:45.216Z,15.70
2019-05-06T15:33:22.677Z,17.20
2019-05-06T15:36:12.699Z,14.00
2019-05-06T15:38:46.826Z,17.47
2019-05-06T15:41:22.205Z,20.23
2019-05-06T15:43:53.752Z,15.90
2019-05-06T15:46:27.849Z,13.57
2019-05-06T15:48:57.439Z,16.23
2019-05-06T15:51:36.519Z,16.27
2019-05-06T15:54:11.307Z,15.37
2019-05-06T15:56:42.257Z,15.47
2019-05-06T15:59:12.311Z,17.17
2019-05-06T16:01:46.770Z,19.60
2019-05-06T16:04:23.852Z,14.03
2019-05-06T16:06:56.271Z,17.20
2019-05-06T16:09:26.099Z,12.67
2019-05-06T16:11:56.045Z,19.00
2019-05-06T16:14:25.932Z,13.13
2019-05-06T16:16:56.363Z,13.33
2019-05-06T16:19:27.347Z,16.83
2019-05-06T16:21:57.565Z,15.37
2019-05-06T16:24:35.426Z,13.70
2019-05-06T16:27:15.768Z,17.57
2019-05-06T16:29:47.450Z,22.67
2019-05-06T16:32:21.929Z,21.33
2019-05-06T16:34:52.437Z,21.13
2019-05-06T16:37:22.876Z,22.20
2019-05-06T16:39:54.667Z,25.27
2019-05-06T16:42:28.404Z,22.77
2019-05-06T16:44:59.735Z,23.57
2019-05-06T16:47:44.217Z,20.80
2019-05-06T16:50:22.557Z,19.73
2019-05-06T16:53:04.089Z,20.40
2019-05-06T16:55:46.119Z,22.07
2019-05-06T16:58:32.806Z,29.07
2019-05-06T17:01:06.451Z,25.83
2019-05-06T17:03:42.853Z,27.63
2019-05-06T17:06:25.921Z,24.60
2019-05-06T17:08:55.437Z,25.90
2019-05-06T17:11:30.409Z,27.50
2019-05-06T17:13:57.057Z,27.73
2019-05-06T17:16:28.425Z,34.60
2019-05-06T17:19:03.417Z,28.47
2019-05-06T17:21:35.231Z,27.07
2019-05-06T17:24:12.865Z,24.90
2019-05-06T17:26:42.861Z,26.60
2019-05-06T17:29:22.676Z,28.45
2019-05-06T17:32:11.872Z,24.77
2019-05-06T17:34:43.292Z,28.00
2019-05-06T17:37:15.674Z,32.15
2019-05-06T17:39:46.045Z,28.03
2019-05-06T17:42:17.530Z,25.30
2019-05-06T17:44:50.200Z,25.87
2019-05-06T17:50:15.443Z,21.73
2019-05-06T17:52:45.829Z,28.13
2019-05-06T17:55:22.040Z,24.27
2019-05-06T17:57:52.882Z,26.87
2019-05-06T18:00:24.491Z,29.10
2019-05-06T18:02:57.751Z,29.50
2019-05-06T18:05:28.030Z,27.60
2019-05-06T18:08:02.838Z,24.13
2019-05-06T18:10:35.493Z,27.07
2019-05-06T18:13:09.160Z,28.97
2019-05-06T18:15:50.436Z,28.43
2019-05-06T18:18:29.006Z,28.12
2019-05-06T18:20:59.734Z,26.67
2019-05-06T18:23:33.613Z,24.55
2019-05-06T18:26:05.855Z,33.10
2019-05-06T18:28:37.441Z,31.40
2019-05-06T18:31:12.500Z,37.15
2019-05-06T18:33:47.131Z,31.20
2019-05-06T18:36:23.753Z,30.82
2019-05-06T18:38:58.060Z,36.42
2019-05-06T18:41:29.392Z,31.50
2019-05-06T18:44:04.914Z,30.05
2019-05-06T18:46:41.894Z,26.55
2019-05-06T18:49:17.671Z,25.10
2019-05-06T18:51:55.653Z,21.23
2019-05-06T18:54:27.126Z,28.27
2019-05-06T18:57:02.036Z,23.30
2019-05-06T18:59:39.487Z,29.50
2019-05-06T19:02:13.183Z,22.45
2019-05-06T19:04:52.267Z,23.10
2019-05-06T19:07:33.433Z,22.85
2019-05-06T19:10:08.244Z,25.55
2019-05-06T19:12:44.929Z,27.02
2019-05-06T19:15:17.024Z,27.73
2019-05-06T19:17:52.484Z,26.10
2019-05-06T19:20:24.398Z,26.07
2019-05-06T19:22:55.869Z,26.17
2019-05-06T19:25:34.627Z,27.20
2019-05-06T19:28:05.167Z,28.90
2019-05-06T19:30:37.546Z,26.25
2019-05-06T19:33:14.881Z,33.40
2019-05-06T19:35:52.914Z,36.70
2019-05-06T19:38:28.541Z,35.58
2019-05-06T19:41:02.077Z,31.10
2019-05-06T19:43:37.588Z,33.40
2019-05-06T19:46:12.125Z,31.48
2019-05-06T19:48:45.291Z,33.42
2019-05-06T19:51:17.433Z,31.42
2019-05-06T19:53:49.159Z,31.95
2019-05-06T19:56:23.224Z,32.55
2019-05-06T19:59:03.247Z,31.90
2019-05-06T20:01:34.623Z,32.23
2019-05-06T20:04:08.107Z,33.92
2019-05-06T20:06:45.409Z,33.48
2019-05-06T20:09:25.692Z,34.83
2019-05-06T20:11:57.421Z,34.15
2019-05-06T20:14:29.694Z,32.55
2019-05-06T20:16:59.909Z,30.85
2019-05-06T20:19:31.198Z,32.48
2019-05-06T20:22:03.867Z,32.80
2019-05-06T20:24:36.272Z,34.48
2019-05-06T20:27:05.436Z,31.55
2019-05-06T20:29:36.864Z,31.02
2019-05-06T20:32:05.776Z,31.93
2019-05-06T20:34:35.357Z,30.75
2019-05-06T20:37:04.637Z,37.17
2019-05-06T20:39:33.924Z,30.40
2019-05-06T20:42:03.203Z,30.68
2019-05-06T20:44:32.617Z,32.95
2019-05-06T20:47:03.070Z,31.97
2019-05-06T20:49:33.299Z,30.48
2019-05-06T20:52:02.673Z,31.00
2019-05-06T20:54:32.544Z,33.28
2019-05-06T20:57:02.561Z,36.10
2019-05-06T20:59:32.340Z,33.60
2019-05-06T21:02:03.178Z,35.33
2019-05-06T21:04:32.599Z,30.17
2019-05-06T21:07:02.804Z,28.77
2019-05-06T21:09:32.184Z,29.32
2019-05-06T21:12:01.444Z,30.25
2019-05-06T21:14:32.348Z,32.13
2019-05-06T21:17:02.497Z,33.88
2019-05-06T21:19:33.102Z,30.35
2019-05-06T21:22:02.647Z,28.90
2019-05-06T21:24:33.289Z,27.45
2019-05-06T21:27:03.135Z,34.58
2019-05-06T21:29:32.714Z,41.88
2019-05-06T21:32:02.704Z,43.78
2019-05-06T21:34:33.129Z,30.00
2019-05-06T21:37:02.937Z,34.05
2019-05-06T21:39:32.874Z,38.08
2019-05-06T21:42:02.325Z,38.02
2019-05-06T21:44:32.421Z,34.90
2019-05-06T21:47:02.933Z,33.05
2019-05-06T21:49:32.785Z,32.67
2019-05-06T21:52:03.318Z,38.08
2019-05-06T21:54:32.946Z,33.58
2019-05-06T21:57:02.878Z,34.58
2019-05-06T21:59:32.451Z,35.63
2019-05-06T22:02:01.797Z,35.03
2019-05-06T22:04:32.724Z,33.95
2019-05-06T22:07:03.019Z,36.35
2019-05-06T22:09:33.377Z,31.90
2019-05-06T22:12:02.650Z,34.55
2019-05-06T22:14:32.582Z,34.08
2019-05-06T22:17:04.129Z,32.30
2019-05-06T22:19:33.187Z,33.45
2019-05-06T22:22:05.538Z,34.90
2019-05-06T22:24:39.266Z,35.60
2019-05-06T22:27:08.547Z,37.95
2019-05-06T22:29:37.826Z,38.10
2019-05-06T22:32:07.115Z,35.60
2019-05-06T22:34:36.389Z,44.55
2019-05-06T22:37:05.666Z,38.20
2019-05-06T22:39:35.013Z,40.83
2019-05-06T22:42:04.535Z,36.35
2019-05-06T22:44:34.037Z,42.73
2019-05-06T22:47:03.386Z,39.42
2019-05-06T22:49:32.657Z,39.75
2019-05-06T22:52:02.918Z,38.40
2019-05-06T22:54:32.569Z,37.80
2019-05-06T22:57:02.424Z,40.78
2019-05-06T22:59:33.113Z,40.80
2019-05-06T23:02:06.944Z,38.92
2019-05-06T23:04:43.922Z,35.00
2019-05-06T23:07:14.221Z,38.48
2019-05-06T23:09:43.881Z,41.18
2019-05-06T23:12:13.171Z,47.53
2019-05-06T23:14:42.440Z,41.90
2019-05-06T23:17:12.686Z,38.20
2019-05-06T23:19:42.797Z,44.60
2019-05-06T23:22:13.215Z,42.08
2019-05-06T23:24:42.485Z,42.65
2019-05-06T23:27:12.656Z,37.98
2019-05-06T23:29:42.529Z,38.75
2019-05-06T23:32:14.056Z,40.75
2019-05-06T23:34:43.433Z,40.48
2019-05-06T23:37:17.263Z,41.60
2019-05-06T23:40:22.758Z,42.67
2019-05-06T23:43:27.934Z,39.80
2019-05-06T23:46:33.409Z,38.65
2019-05-06T23:49:38.797Z,44.35
2019-05-06T23:52:44.035Z,39.08
2019-05-06T23:55:49.110Z,45.00
2019-05-06T23:58:17.544Z,44.00
